Grenadines III — CRA5628 — position and weather

sailwx.info

Track history (hours):
 
Tides and Currents Weather Stations Pressure Air Temp Water Temp Dewpoint Dewpoint Depression Visibility Wind Speed Wind Dir Waves Ship Positions

Grenadines III

Last reported at 2014-Aug-28 20:22 UTC. Time now 2014-Aug-30 04:31 UTC.
Position N 43°08' E 005°45'.

Type: Pilot. MMSI: 225910870.

Date/timePositionNaut miles runAvg speedWind from/ knotsBaromVisibWave heightAir tempDewpointWater temp
2014-Aug-28 20:22N 43°08' E 005°45'  
2014-Aug-26 16:08N 43°06' E 005°45'610.1
2014-Aug-26 15:33N 43°02' E 005°51'1111.1
2014-Aug-26 14:33N 43°01' E 006°06'1211.5
2014-Aug-26 13:31N 43°04' E 006°22'1212.3
2014-Aug-26 12:32N 43°08' E 006°37'1212.5
2014-Aug-26 11:33N 43°16' E 006°50'1312.8
2014-Aug-26 10:32N 43°26' E 007°01'10 9.9
2014-Aug-26 09:32N 43°35' E 007°08'0 0.0
2014-Aug-26 08:26N 43°35' E 007°08'0 0.0
2014-Aug-26 07:32N 43°35' E 007°08'0 0.0
2014-Aug-26 06:32N 43°35' E 007°08'0 0.0
2014-Aug-26 05:32N 43°35' E 007°08'0 0.0
2014-Aug-26 04:32N 43°35' E 007°08'0 0.0
2014-Aug-26 03:32N 43°35' E 007°08'0 0.0
2014-Aug-26 02:32N 43°35' E 007°08'0 0.0
2014-Aug-26 01:32N 43°35' E 007°08'0 0.0
2014-Aug-26 00:32N 43°35' E 007°08'0 0.0
2014-Aug-25 23:32N 43°35' E 007°08'0 0.0
2014-Aug-25 22:20N 43°35' E 007°08'0 0.0
2014-Aug-25 21:32N 43°35' E 007°08'0 0.0
2014-Aug-25 20:20N 43°35' E 007°08'0 0.0
2014-Aug-25 19:32N 43°35' E 007°08'0 0.0
2014-Aug-25 18:32N 43°35' E 007°08'0 0.0
2014-Aug-25 17:26N 43°35' E 007°08'0 0.0
2014-Aug-25 16:31N 43°35' E 007°08'0 0.0
2014-Aug-25 15:31N 43°35' E 007°08'0 0.0
2014-Aug-25 14:32N 43°35' E 007°08'0 0.0
2014-Aug-25 13:32N 43°35' E 007°08'2 1.6
2014-Aug-25 12:33N 43°36' E 007°10'1010.2
2014-Aug-25 11:33N 43°41' E 007°22'2 1.3
2014-Aug-25 10:21N 43°43' E 007°21'0 0.0
2014-Aug-25 09:33N 43°43' E 007°21'0 0.1
2014-Aug-25 08:33N 43°42' E 007°21'8 8.1
2014-Aug-25 07:33N 43°36' E 007°14'4 4.0
2014-Aug-25 06:29N 43°35' E 007°08'0 0.0
2014-Aug-25 05:29N 43°35' E 007°08'0 0.0
2014-Aug-25 04:29N 43°35' E 007°08'0 0.0
2014-Aug-25 03:23N 43°35' E 007°08'0 0.0
2014-Aug-25 02:23N 43°35' E 007°08'0 0.0
2014-Aug-25 01:29N 43°35' E 007°08'0 0.0
2014-Aug-25 00:29N 43°35' E 007°08'0 0.0
2014-Aug-24 23:29N 43°35' E 007°08'0 0.0
2014-Aug-24 22:29N 43°35' E 007°08'0 0.1
2014-Aug-24 21:33N 43°35' E 007°08'6 6.1
2014-Aug-24 20:32N 43°29' E 007°04'9 9.3
2014-Aug-24 19:33N 43°23' E 006°55'10 9.8
2014-Aug-24 18:34N 43°17' E 006°45'4 0.6
2014-Aug-24 12:07N 43°14' E 006°40'0 0.0
2014-Aug-24 11:31N 43°14' E 006°40'0 0.0
2014-Aug-24 10:13N 43°14' E 006°40'0 0.0
2014-Aug-24 09:31N 43°14' E 006°40'2 2.2
2014-Aug-24 08:33N 43°15' E 006°43'5 4.2
2014-Aug-24 07:28N 43°17' E 006°37'0 0.0
2014-Aug-24 06:28N 43°17' E 006°37'0 0.0
2014-Aug-24 05:19N 43°17' E 006°37'0 0.0
2014-Aug-24 04:31N 43°17' E 006°37'0 0.0
2014-Aug-24 03:25N 43°17' E 006°37'0 0.0
2014-Aug-24 02:22N 43°17' E 006°37'0 0.0
2014-Aug-24 01:31N 43°17' E 006°37'0 0.0
2014-Aug-24 00:22N 43°17' E 006°37'1 0.8
2014-Aug-23 23:29N 43°16' E 006°36'0 0.2
2014-Aug-23 22:20N 43°17' E 006°37'0 0.4
2014-Aug-23 21:29N 43°16' E 006°37'0 0.0
2014-Aug-23 20:32N 43°16' E 006°37'0 0.0
2014-Aug-23 19:26N 43°16' E 006°37'0 0.0
2014-Aug-23 03:28N 43°16' E 006°37'0 0.0
2014-Aug-23 02:28N 43°16' E 006°37'0 0.0
2014-Aug-23 01:31N 43°16' E 006°37'0 0.0
2014-Aug-23 00:31N 43°16' E 006°37'0 0.0
2014-Aug-22 23:13N 43°16' E 006°37'0 0.0
2014-Aug-22 22:31N 43°16' E 006°37'0 0.0
2014-Aug-22 21:31N 43°16' E 006°37'0 0.0
2014-Aug-22 20:25N 43°16' E 006°37'0 0.0
2014-Aug-22 19:25N 43°16' E 006°37'2 2.2
2014-Aug-22 18:33N 43°17' E 006°39'1212.2
2014-Aug-22 17:33N 43°24' E 006°53'9 3.1
2014-Aug-22 14:32N 43°31' E 007°02'0 0.0
2014-Aug-22 13:26N 43°31' E 007°02'3 4.0
2014-Aug-22 12:33N 43°32' E 007°07'1512.9
2014-Aug-22 11:22N 43°41' E 007°24'1 0.1
2014-Aug-21 15:29N 43°43' E 007°24'1 0.8
2014-Aug-21 14:29N 43°43' E 007°23'0 0.0
2014-Aug-21 13:29N 43°43' E 007°23'0 0.0
2014-Aug-21 12:29N 43°43' E 007°23'0 0.0
2014-Aug-21 11:23N 43°43' E 007°23'7 8.0
2014-Aug-21 10:33N 43°38' E 007°17'7 5.9
2014-Aug-21 09:19N 43°35' E 007°08'0 0.0
2014-Aug-21 08:31N 43°35' E 007°08'0 0.0
2014-Aug-21 07:31N 43°35' E 007°08'0 0.0
2014-Aug-21 06:31N 43°35' E 007°08'0 0.0
2014-Aug-21 05:31N 43°35' E 007°08'0 0.0
2014-Aug-21 04:31N 43°35' E 007°08'0 0.0
2014-Aug-21 03:25N 43°35' E 007°08'0 0.0
2014-Aug-21 02:31N 43°35' E 007°08'0 0.0
2014-Aug-21 01:31N 43°35' E 007°08'0 0.0
2014-Aug-21 00:31N 43°35' E 007°08'0 0.0
2014-Aug-20 23:31N 43°35' E 007°08'0 0.0
2014-Aug-20 22:31N 43°35' E 007°08'0 0.0
2014-Aug-20 21:31N 43°35' E 007°08'2 1.6
2014-Aug-20 20:24N 43°33' E 007°07'0 0.0
2014-Aug-20 19:33N 43°33' E 007°07'2 1.5
2014-Aug-20 18:22N 43°35' E 007°08'0 0.0
2014-Aug-20 17:28N 43°35' E 007°08'0 0.0
2014-Aug-20 16:16N 43°35' E 007°08'5 5.7
2014-Aug-20 15:28N 43°31' E 007°04'0 0.0
2014-Aug-20 14:16N 43°31' E 007°04'0 0.0
2014-Aug-20 13:22N 43°31' E 007°04'0 0.2
2014-Aug-20 11:33N 43°32' E 007°04'1211.9
2014-Aug-20 10:33N 43°39' E 007°17'3 3.0
2014-Aug-20 09:28N 43°42' E 007°19'0 0.0
2014-Aug-20 08:22N 43°42' E 007°19'0 0.0
2014-Aug-20 07:22N 43°42' E 007°19'0 0.0
2014-Aug-20 06:22N 43°42' E 007°19'0 0.0
2014-Aug-20 05:16N 43°42' E 007°19'0 0.0
2014-Aug-20 04:16N 43°42' E 007°19'0 0.0
2014-Aug-20 03:22N 43°42' E 007°19'0 0.0
2014-Aug-20 02:16N 43°42' E 007°19'0 0.0
2014-Aug-20 01:28N 43°42' E 007°19'0 0.0
2014-Aug-20 00:04N 43°42' E 007°19'0 0.0
2014-Aug-19 23:10N 43°42' E 007°19'0 0.0
2014-Aug-19 21:10N 43°42' E 007°19'0 0.0
2014-Aug-19 19:33N 43°42' E 007°19'63 8.8
2014-Aug-19 12:23N 44°04' E 008°41'1012.6
2014-Aug-19 11:33N 44°09' E 008°53'1212.2
2014-Aug-19 10:33N 44°16' E 009°08'  
Track history (hours):
 
Tides and Currents Weather Stations Pressure Air Temp Water Temp Dewpoint Dewpoint Depression Visibility Wind Speed Wind Dir Waves Ship Positions

Grenadines III

Last reported at 2014-Aug-28 20:22 UTC. Time now 2014-Aug-30 04:31 UTC.
Position N 43°08' E 005°45'.

Type: Pilot. MMSI: 225910870.

Date/timePositionNaut miles runAvg speedWind from/ knotsBaromVisibWave heightAir tempDewpointWater temp
2014-Aug-28 20:22N 43°08' E 005°45'  
2014-Aug-26 16:08N 43°06' E 005°45'610.1
2014-Aug-26 15:33N 43°02' E 005°51'1111.1
2014-Aug-26 14:33N 43°01' E 006°06'1211.5
2014-Aug-26 13:31N 43°04' E 006°22'1212.3
2014-Aug-26 12:32N 43°08' E 006°37'1212.5
2014-Aug-26 11:33N 43°16' E 006°50'1312.8
2014-Aug-26 10:32N 43°26' E 007°01'10 9.9
2014-Aug-26 09:32N 43°35' E 007°08'0 0.0
2014-Aug-26 08:26N 43°35' E 007°08'0 0.0
2014-Aug-26 07:32N 43°35' E 007°08'0 0.0
2014-Aug-26 06:32N 43°35' E 007°08'0 0.0
2014-Aug-26 05:32N 43°35' E 007°08'0 0.0
2014-Aug-26 04:32N 43°35' E 007°08'0 0.0
2014-Aug-26 03:32N 43°35' E 007°08'0 0.0
2014-Aug-26 02:32N 43°35' E 007°08'0 0.0
2014-Aug-26 01:32N 43°35' E 007°08'0 0.0
2014-Aug-26 00:32N 43°35' E 007°08'0 0.0
2014-Aug-25 23:32N 43°35' E 007°08'0 0.0
2014-Aug-25 22:20N 43°35' E 007°08'0 0.0
2014-Aug-25 21:32N 43°35' E 007°08'0 0.0
2014-Aug-25 20:20N 43°35' E 007°08'0 0.0
2014-Aug-25 19:32N 43°35' E 007°08'0 0.0
2014-Aug-25 18:32N 43°35' E 007°08'0 0.0
2014-Aug-25 17:26N 43°35' E 007°08'0 0.0
2014-Aug-25 16:31N 43°35' E 007°08'0 0.0
2014-Aug-25 15:31N 43°35' E 007°08'0 0.0
2014-Aug-25 14:32N 43°35' E 007°08'0 0.0
2014-Aug-25 13:32N 43°35' E 007°08'2 1.6
2014-Aug-25 12:33N 43°36' E 007°10'1010.2
2014-Aug-25 11:33N 43°41' E 007°22'2 1.3
2014-Aug-25 10:21N 43°43' E 007°21'0 0.0
2014-Aug-25 09:33N 43°43' E 007°21'0 0.1
2014-Aug-25 08:33N 43°42' E 007°21'8 8.1
2014-Aug-25 07:33N 43°36' E 007°14'4 4.0
2014-Aug-25 06:29N 43°35' E 007°08'0 0.0
2014-Aug-25 05:29N 43°35' E 007°08'0 0.0
2014-Aug-25 04:29N 43°35' E 007°08'0 0.0
2014-Aug-25 03:23N 43°35' E 007°08'0 0.0
2014-Aug-25 02:23N 43°35' E 007°08'0 0.0
2014-Aug-25 01:29N 43°35' E 007°08'0 0.0
2014-Aug-25 00:29N 43°35' E 007°08'0 0.0
2014-Aug-24 23:29N 43°35' E 007°08'0 0.0
2014-Aug-24 22:29N 43°35' E 007°08'0 0.1
2014-Aug-24 21:33N 43°35' E 007°08'6 6.1
2014-Aug-24 20:32N 43°29' E 007°04'9 9.3
2014-Aug-24 19:33N 43°23' E 006°55'10 9.8
2014-Aug-24 18:34N 43°17' E 006°45'4 0.6
2014-Aug-24 12:07N 43°14' E 006°40'0 0.0
2014-Aug-24 11:31N 43°14' E 006°40'0 0.0
2014-Aug-24 10:13N 43°14' E 006°40'0 0.0
2014-Aug-24 09:31N 43°14' E 006°40'2 2.2
2014-Aug-24 08:33N 43°15' E 006°43'5 4.2
2014-Aug-24 07:28N 43°17' E 006°37'0 0.0
2014-Aug-24 06:28N 43°17' E 006°37'0 0.0
2014-Aug-24 05:19N 43°17' E 006°37'0 0.0
2014-Aug-24 04:31N 43°17' E 006°37'0 0.0
2014-Aug-24 03:25N 43°17' E 006°37'0 0.0
2014-Aug-24 02:22N 43°17' E 006°37'0 0.0
2014-Aug-24 01:31N 43°17' E 006°37'0 0.0
2014-Aug-24 00:22N 43°17' E 006°37'1 0.8
2014-Aug-23 23:29N 43°16' E 006°36'0 0.2
2014-Aug-23 22:20N 43°17' E 006°37'0 0.4
2014-Aug-23 21:29N 43°16' E 006°37'0 0.0
2014-Aug-23 20:32N 43°16' E 006°37'0 0.0
2014-Aug-23 19:26N 43°16' E 006°37'0 0.0
2014-Aug-23 03:28N 43°16' E 006°37'0 0.0
2014-Aug-23 02:28N 43°16' E 006°37'0 0.0
2014-Aug-23 01:31N 43°16' E 006°37'0 0.0
2014-Aug-23 00:31N 43°16' E 006°37'0 0.0
2014-Aug-22 23:13N 43°16' E 006°37'0 0.0
2014-Aug-22 22:31N 43°16' E 006°37'0 0.0
2014-Aug-22 21:31N 43°16' E 006°37'0 0.0
2014-Aug-22 20:25N 43°16' E 006°37'0 0.0
2014-Aug-22 19:25N 43°16' E 006°37'2 2.2
2014-Aug-22 18:33N 43°17' E 006°39'1212.2
2014-Aug-22 17:33N 43°24' E 006°53'9 3.1
2014-Aug-22 14:32N 43°31' E 007°02'0 0.0
2014-Aug-22 13:26N 43°31' E 007°02'3 4.0
2014-Aug-22 12:33N 43°32' E 007°07'1512.9
2014-Aug-22 11:22N 43°41' E 007°24'1 0.1
2014-Aug-21 15:29N 43°43' E 007°24'1 0.8
2014-Aug-21 14:29N 43°43' E 007°23'0 0.0
2014-Aug-21 13:29N 43°43' E 007°23'0 0.0
2014-Aug-21 12:29N 43°43' E 007°23'0 0.0
2014-Aug-21 11:23N 43°43' E 007°23'7 8.0
2014-Aug-21 10:33N 43°38' E 007°17'7 5.9
2014-Aug-21 09:19N 43°35' E 007°08'0 0.0
2014-Aug-21 08:31N 43°35' E 007°08'0 0.0
2014-Aug-21 07:31N 43°35' E 007°08'0 0.0
2014-Aug-21 06:31N 43°35' E 007°08'0 0.0
2014-Aug-21 05:31N 43°35' E 007°08'0 0.0
2014-Aug-21 04:31N 43°35' E 007°08'0 0.0
2014-Aug-21 03:25N 43°35' E 007°08'0 0.0
2014-Aug-21 02:31N 43°35' E 007°08'0 0.0
2014-Aug-21 01:31N 43°35' E 007°08'0 0.0
2014-Aug-21 00:31N 43°35' E 007°08'0 0.0
2014-Aug-20 23:31N 43°35' E 007°08'0 0.0
2014-Aug-20 22:31N 43°35' E 007°08'0 0.0
2014-Aug-20 21:31N 43°35' E 007°08'2 1.6
2014-Aug-20 20:24N 43°33' E 007°07'0 0.0
2014-Aug-20 19:33N 43°33' E 007°07'2 1.5
2014-Aug-20 18:22N 43°35' E 007°08'0 0.0
2014-Aug-20 17:28N 43°35' E 007°08'0 0.0
2014-Aug-20 16:16N 43°35' E 007°08'5 5.7
2014-Aug-20 15:28N 43°31' E 007°04'0 0.0
2014-Aug-20 14:16N 43°31' E 007°04'0 0.0
2014-Aug-20 13:22N 43°31' E 007°04'0 0.2
2014-Aug-20 11:33N 43°32' E 007°04'1211.9
2014-Aug-20 10:33N 43°39' E 007°17'3 3.0
2014-Aug-20 09:28N 43°42' E 007°19'0 0.0
2014-Aug-20 08:22N 43°42' E 007°19'0 0.0
2014-Aug-20 07:22N 43°42' E 007°19'0 0.0
2014-Aug-20 06:22N 43°42' E 007°19'0 0.0
2014-Aug-20 05:16N 43°42' E 007°19'0 0.0
2014-Aug-20 04:16N 43°42' E 007°19'0 0.0
2014-Aug-20 03:22N 43°42' E 007°19'0 0.0
2014-Aug-20 02:16N 43°42' E 007°19'0 0.0
2014-Aug-20 01:28N 43°42' E 007°19'0 0.0
2014-Aug-20 00:04N 43°42' E 007°19'0 0.0
2014-Aug-19 23:10N 43°42' E 007°19'0 0.0
2014-Aug-19 21:10N 43°42' E 007°19'0 0.0
2014-Aug-19 19:33N 43°42' E 007°19'63 8.8
2014-Aug-19 12:23N 44°04' E 008°41'1012.6
2014-Aug-19 11:33N 44°09' E 008°53'1212.2
2014-Aug-19 10:33N 44°16' E 009°08'  

Dump ship's entire track history